sensor_id;sensor_type;location;lat;lon;timestamp;pressure;altitude;pressure_sealevel;temperature;humidity
33953;BME280;20231;42.710;23.280;2023-03-01T00:01:49;95438.69;;;10.53;67.04
33953;BME280;20231;42.710;23.280;2023-03-01T00:04:15;95426.28;;;10.63;66.56
33953;BME280;20231;42.710;23.280;2023-03-01T00:06:42;95426.25;;;10.58;66.75
33953;BME280;20231;42.710;23.280;2023-03-01T00:09:08;95431.56;;;10.33;67.20
33953;BME280;20231;42.710;23.280;2023-03-01T00:11:33;95432.88;;;10.31;67.58
33953;BME280;20231;42.710;23.280;2023-03-01T00:14:01;95430.25;;;10.31;67.72
33953;BME280;20231;42.710;23.280;2023-03-01T00:16:41;95423.13;;;10.36;67.55
33953;BME280;20231;42.710;23.280;2023-03-01T00:19:09;95416.25;;;10.40;67.45
33953;BME280;20231;42.710;23.280;2023-03-01T00:21:36;95407.81;;;10.33;67.46
33953;BME280;20231;42.710;23.280;2023-03-01T00:24:02;95395.72;;;10.37;66.95
33953;BME280;20231;42.710;23.280;2023-03-01T00:26:28;95386.22;;;10.36;67.17
33953;BME280;20231;42.710;23.280;2023-03-01T00:28:54;95405.19;;;10.48;66.83
33953;BME280;20231;42.710;23.280;2023-03-01T00:31:25;95391.19;;;10.43;66.73
33953;BME280;20231;42.710;23.280;2023-03-01T00:34:00;95385.16;;;10.37;66.75
33953;BME280;20231;42.710;23.280;2023-03-01T00:36:30;95371.97;;;10.27;66.91
33953;BME280;20231;42.710;23.280;2023-03-01T00:38:57;95371.44;;;10.30;66.50
33953;BME280;20231;42.710;23.280;2023-03-01T00:41:23;95385.16;;;10.32;66.87
33953;BME280;20231;42.710;23.280;2023-03-01T00:43:52;95381.47;;;10.38;66.56
33953;BME280;20231;42.710;23.280;2023-03-01T00:46:21;95379.34;;;10.40;66.43
33953;BME280;20231;42.710;23.280;2023-03-01T00:48:46;95368.81;;;10.30;66.74
33953;BME280;20231;42.710;23.280;2023-03-01T00:51:23;95380.66;;;10.43;66.02
33953;BME280;20231;42.710;23.280;2023-03-01T00:53:54;95374.09;;;10.25;66.81
33953;BME280;20231;42.710;23.280;2023-03-01T00:56:20;95357.75;;;10.23;66.50
33953;BME280;20231;42.710;23.280;2023-03-01T00:58:46;95376.19;;;10.43;66.00
33953;BME280;20231;42.710;23.280;2023-03-01T01:01:18;95382.50;;;10.42;65.95
33953;BME280;20231;42.710;23.280;2023-03-01T01:06:20;95386.22;;;10.36;66.05
33953;BME280;20231;42.710;23.280;2023-03-01T01:08:45;95389.91;;;10.30;66.24
33953;BME280;20231;42.710;23.280;2023-03-01T01:11:11;95387.03;;;10.22;66.43
33953;BME280;20231;42.710;23.280;2023-03-01T01:13:37;95374.38;;;10.09;66.60
33953;BME280;20231;42.710;23.280;2023-03-01T01:16:03;95388.06;;;10.26;66.29
33953;BME280;20231;42.710;23.280;2023-03-01T01:18:29;95385.97;;;10.23;66.38
33953;BME280;20231;42.710;23.280;2023-03-01T01:20:54;95382.78;;;10.26;66.19
33953;BME280;20231;42.710;23.280;2023-03-01T01:23:19;95375.41;;;10.18;66.76
33953;BME280;20231;42.710;23.280;2023-03-01T01:25:45;95369.06;;;10.19;66.19
33953;BME280;20231;42.710;23.280;2023-03-01T01:28:11;95375.13;;;10.14;66.17
33953;BME280;20231;42.710;23.280;2023-03-01T01:30:36;95368.31;;;9.98;66.52
33953;BME280;20231;42.710;23.280;2023-03-01T01:33:02;95375.16;;;9.99;66.58
33953;BME280;20231;42.710;23.280;2023-03-01T01:35:27;95388.59;;;10.08;66.34
33953;BME280;20231;42.710;23.280;2023-03-01T01:37:53;95387.28;;;10.00;66.41
33953;BME280;20231;42.710;23.280;2023-03-01T01:40:18;95394.94;;;9.97;66.56
33953;BME280;20231;42.710;23.280;2023-03-01T01:42:44;95395.97;;;10.01;66.58
33953;BME280;20231;42.710;23.280;2023-03-01T01:48:10;95392.81;;;10.14;66.01
33953;BME280;20231;42.710;23.280;2023-03-01T01:50:40;95392.56;;;10.25;65.38
33953;BME280;20231;42.710;23.280;2023-03-01T01:53:12;95363.56;;;10.00;65.86
33953;BME280;20231;42.710;23.280;2023-03-01T01:55:45;95390.97;;;10.19;65.32
33953;BME280;20231;42.710;23.280;2023-03-01T01:58:14;95373.03;;;10.01;65.41
33953;BME280;20231;42.710;23.280;2023-03-01T02:00:41;95391.75;;;10.20;65.43
33953;BME280;20231;42.710;23.280;2023-03-01T02:03:10;95361.94;;;10.14;64.81
33953;BME280;20231;42.710;23.280;2023-03-01T02:08:21;95365.38;;;10.20;65.12
33953;BME280;20231;42.710;23.280;2023-03-01T02:10:49;95365.91;;;10.22;64.79
33953;BME280;20231;42.710;23.280;2023-03-01T02:13:15;95363.25;;;10.32;64.35
33953;BME280;20231;42.710;23.280;2023-03-01T02:15:41;95337.44;;;9.99;64.84
33953;BME280;20231;42.710;23.280;2023-03-01T02:18:10;95350.34;;;10.20;64.68
33953;BME280;20231;42.710;23.280;2023-03-01T02:23:27;95339.81;;;10.30;64.06
33953;BME280;20231;42.710;23.280;2023-03-01T02:26:03;95345.34;;;10.24;64.33
33953;BME280;20231;42.710;23.280;2023-03-01T02:28:35;95347.19;;;10.23;63.98
33953;BME280;20231;42.710;23.280;2023-03-01T02:31:02;95362.22;;;10.28;64.09
33953;BME280;20231;42.710;23.280;2023-03-01T02:33:47;95357.47;;;10.20;64.09
33953;BME280;20231;42.710;23.280;2023-03-01T02:36:20;95370.94;;;10.23;63.96
33953;BME280;20231;42.710;23.280;2023-03-01T02:38:47;95378.59;;;10.10;64.35
33953;BME280;20231;42.710;23.280;2023-03-01T02:41:15;95364.06;;;10.17;64.17
33953;BME280;20231;42.710;23.280;2023-03-01T02:43:41;95364.59;;;10.19;63.81
33953;BME280;20231;42.710;23.280;2023-03-01T02:46:20;95376.72;;;10.25;63.89
33953;BME280;20231;42.710;23.280;2023-03-01T02:48:54;95362.75;;;10.05;64.19
33953;BME280;20231;42.710;23.280;2023-03-01T02:54:22;95369.34;;;10.12;64.46
33953;BME280;20231;42.710;23.280;2023-03-01T02:56:49;95360.38;;;10.18;64.42
33953;BME280;20231;42.710;23.280;2023-03-01T02:59:18;95355.13;;;10.13;64.43
33953;BME280;20231;42.710;23.280;2023-03-01T03:01:44;95353.53;;;10.07;64.68
33953;BME280;20231;42.710;23.280;2023-03-01T03:04:14;95366.69;;;10.22;64.26
33953;BME280;20231;42.710;23.280;2023-03-01T03:06:48;95365.66;;;10.13;64.56
33953;BME280;20231;42.710;23.280;2023-03-01T03:09:15;95352.47;;;10.08;64.57
33953;BME280;20231;42.710;23.280;2023-03-01T03:11:40;95371.47;;;10.05;64.81
33953;BME280;20231;42.710;23.280;2023-03-01T03:14:11;95372.50;;;10.09;64.65
33953;BME280;20231;42.710;23.280;2023-03-01T03:16:43;95374.09;;;10.10;64.72
33953;BME280;20231;42.710;23.280;2023-03-01T03:19:09;95372.78;;;10.03;64.64
33953;BME280;20231;42.710;23.280;2023-03-01T03:21:35;95376.19;;;10.08;64.44
33953;BME280;20231;42.710;23.280;2023-03-01T03:24:01;95385.66;;;9.90;65.30
33953;BME280;20231;42.710;23.280;2023-03-01T03:26:26;95382.00;;;10.05;64.92
33953;BME280;20231;42.710;23.280;2023-03-01T03:28:52;95370.91;;;9.89;65.07
33953;BME280;20231;42.710;23.280;2023-03-01T03:31:17;95377.50;;;9.91;65.11
33953;BME280;20231;42.710;23.280;2023-03-01T03:33:43;95381.47;;;10.03;64.93
33953;BME280;20231;42.710;23.280;2023-03-01T03:36:08;95372.75;;;9.93;64.98
33953;BME280;20231;42.710;23.280;2023-03-01T03:38:39;95381.47;;;9.98;65.02
33953;BME280;20231;42.710;23.280;2023-03-01T03:41:07;95388.28;;;9.75;65.64
33953;BME280;20231;42.710;23.280;2023-03-01T03:43:37;95389.34;;;9.79;65.54
33953;BME280;20231;42.710;23.280;2023-03-01T03:46:03;95389.34;;;9.74;65.71
33953;BME280;20231;42.710;23.280;2023-03-01T03:48:34;95395.94;;;9.81;65.61
33953;BME280;20231;42.710;23.280;2023-03-01T03:51:00;95380.38;;;9.75;65.57
33953;BME280;20231;42.710;23.280;2023-03-01T03:53:27;95382.50;;;9.93;65.05
33953;BME280;20231;42.710;23.280;2023-03-01T03:55:53;95399.38;;;9.92;65.37
33953;BME280;20231;42.710;23.280;2023-03-01T03:58:21;95389.88;;;9.86;65.64
33953;BME280;20231;42.710;23.280;2023-03-01T04:00:49;95371.69;;;9.84;65.23
33953;BME280;20231;42.710;23.280;2023-03-01T04:03:16;95398.88;;;9.99;65.07
33953;BME280;20231;42.710;23.280;2023-03-01T04:05:44;95397.28;;;9.98;65.12
33953;BME280;20231;42.710;23.280;2023-03-01T04:08:10;95401.78;;;10.03;64.94
33953;BME280;20231;42.710;23.280;2023-03-01T04:10:44;95402.03;;;10.01;64.97
33953;BME280;20231;42.710;23.280;2023-03-01T04:13:12;95395.69;;;10.02;64.72
33953;BME280;20231;42.710;23.280;2023-03-01T04:15:39;95394.09;;;9.92;64.98
33953;BME280;20231;42.710;23.280;2023-03-01T04:18:05;95397.25;;;9.93;65.06
33953;BME280;20231;42.710;23.280;2023-03-01T04:20:33;95409.94;;;10.01;64.99
33953;BME280;20231;42.710;23.280;2023-03-01T04:23:04;95381.97;;;9.86;65.10
33953;BME280;20231;42.710;23.280;2023-03-01T04:25:38;95374.34;;;9.79;65.49
33953;BME280;20231;42.710;23.280;2023-03-01T04:28:04;95394.66;;;9.98;65.00
33953;BME280;20231;42.710;23.280;2023-03-01T04:30:29;95384.34;;;9.77;65.58
33953;BME280;20231;42.710;23.280;2023-03-01T04:32:54;95395.69;;;9.88;65.30
33953;BME280;20231;42.710;23.280;2023-03-01T04:35:20;95403.59;;;9.93;65.30
33953;BME280;20231;42.710;23.280;2023-03-01T04:37:45;95391.44;;;9.96;64.97
33953;BME280;20231;42.710;23.280;2023-03-01T04:40:11;95398.59;;;9.91;65.17
33953;BME280;20231;42.710;23.280;2023-03-01T04:42:42;95389.38;;;10.03;64.88
33953;BME280;20231;42.710;23.280;2023-03-01T04:45:08;95386.75;;;10.03;64.87
33953;BME280;20231;42.710;23.280;2023-03-01T04:47:42;95383.03;;;9.94;65.17
33953;BME280;20231;42.710;23.280;2023-03-01T04:50:09;95391.25;;;9.98;65.11
33953;BME280;20231;42.710;23.280;2023-03-01T04:52:35;95383.28;;;9.93;65.03
33953;BME280;20231;42.710;23.280;2023-03-01T04:55:01;95380.13;;;9.96;65.00
33953;BME280;20231;42.710;23.280;2023-03-01T04:57:27;95384.09;;;9.93;65.08
33953;BME280;20231;42.710;23.280;2023-03-01T04:59:52;95369.03;;;9.69;65.51
33953;BME280;20231;42.710;23.280;2023-03-01T05:02:18;95368.25;;;9.79;65.37
33953;BME280;20231;42.710;23.280;2023-03-01T05:04:43;95364.31;;;9.76;65.43
33953;BME280;20231;42.710;23.280;2023-03-01T05:07:09;95371.94;;;9.73;65.37
33953;BME280;20231;42.710;23.280;2023-03-01T05:09:34;95378.78;;;9.69;65.84
33953;BME280;20231;42.710;23.280;2023-03-01T05:11:59;95376.44;;;9.67;65.86
33953;BME280;20231;42.710;23.280;2023-03-01T05:14:25;95379.31;;;9.61;66.01
33953;BME280;20231;42.710;23.280;2023-03-01T05:16:50;95388.53;;;9.68;65.87
33953;BME280;20231;42.710;23.280;2023-03-01T05:19:17;95362.44;;;9.57;65.94
33953;BME280;20231;42.710;23.280;2023-03-01T05:21:47;95400.97;;;9.83;65.62
33953;BME280;20231;42.710;23.280;2023-03-01T05:24:33;95395.69;;;9.88;65.18
33953;BME280;20231;42.710;23.280;2023-03-01T05:27:00;95397.50;;;9.82;65.39
33953;BME280;20231;42.710;23.280;2023-03-01T05:29:27;95389.84;;;9.71;65.26
33953;BME280;20231;42.710;23.280;2023-03-01T05:31:53;95397.00;;;9.85;65.40
33953;BME280;20231;42.710;23.280;2023-03-01T05:34:22;95388.03;;;9.71;65.50
33953;BME280;20231;42.710;23.280;2023-03-01T05:36:48;95393.56;;;9.70;66.01
33953;BME280;20231;42.710;23.280;2023-03-01T05:39:13;95383.53;;;9.77;65.60
33953;BME280;20231;42.710;23.280;2023-03-01T05:41:38;95382.22;;;9.59;66.17
33953;BME280;20231;42.710;23.280;2023-03-01T05:44:06;95402.25;;;9.65;66.19
33953;BME280;20231;42.710;23.280;2023-03-01T05:46:31;95403.28;;;9.69;66.04
33953;BME280;20231;42.710;23.280;2023-03-01T05:48:57;95397.00;;;9.85;73.95
33953;BME280;20231;42.710;23.280;2023-03-01T05:51:22;95404.41;;;10.18;72.14
33953;BME280;20231;42.710;23.280;2023-03-01T05:53:47;95406.28;;;10.07;67.31
33953;BME280;20231;42.710;23.280;2023-03-01T05:56:13;95405.19;;;9.98;66.31
33953;BME280;20231;42.710;23.280;2023-03-01T05:58:39;95404.63;;;9.82;66.47
33953;BME280;20231;42.710;23.280;2023-03-01T06:01:04;95408.59;;;9.79;66.26
33953;BME280;20231;42.710;23.280;2023-03-01T06:03:31;95403.78;;;10.90;92.13
33953;BME280;20231;42.710;23.280;2023-03-01T06:05:57;95416.22;;;10.70;68.68
33953;BME280;20231;42.710;23.280;2023-03-01T06:08:23;95416.50;;;10.64;65.48
33953;BME280;20231;42.710;23.280;2023-03-01T06:10:49;95418.91;;;10.55;64.91
33953;BME280;20231;42.710;23.280;2023-03-01T06:13:14;95415.72;;;10.33;64.89
33953;BME280;20231;42.710;23.280;2023-03-01T06:15:40;95419.72;;;10.21;64.96
33953;BME280;20231;42.710;23.280;2023-03-01T06:18:05;95428.38;;;10.01;65.75
33953;BME280;20231;42.710;23.280;2023-03-01T06:20:31;95436.06;;;10.03;65.67
33953;BME280;20231;42.710;23.280;2023-03-01T06:22:56;95421.22;;;9.87;66.12
33953;BME280;20231;42.710;23.280;2023-03-01T06:25:23;95436.25;;;9.96;65.75
33953;BME280;20231;42.710;23.280;2023-03-01T06:27:49;95446.53;;;9.88;66.02
33953;BME280;20231;42.710;23.280;2023-03-01T06:30:17;95440.47;;;9.83;66.52
33953;BME280;20231;42.710;23.280;2023-03-01T06:32:42;95437.56;;;9.79;66.62
33953;BME280;20231;42.710;23.280;2023-03-01T06:35:09;95435.44;;;9.71;66.63
33953;BME280;20231;42.710;23.280;2023-03-01T06:37:35;95431.50;;;9.74;66.70
33953;BME280;20231;42.710;23.280;2023-03-01T06:40:02;95436.75;;;9.74;66.90
33953;BME280;20231;42.710;23.280;2023-03-01T06:42:34;95426.50;;;9.77;66.93
33953;BME280;20231;42.710;23.280;2023-03-01T06:44:59;95419.63;;;9.66;66.62
33953;BME280;20231;42.710;23.280;2023-03-01T06:47:25;95427.03;;;9.79;66.42
33953;BME280;20231;42.710;23.280;2023-03-01T06:49:50;95438.09;;;9.86;66.38
33953;BME280;20231;42.710;23.280;2023-03-01T06:52:16;95420.19;;;9.73;66.57
33953;BME280;20231;42.710;23.280;2023-03-01T06:54:41;95428.09;;;9.78;66.50
33953;BME280;20231;42.710;23.280;2023-03-01T06:57:06;95432.31;;;9.89;66.28
33953;BME280;20231;42.710;23.280;2023-03-01T06:59:32;95431.78;;;9.82;66.14
33953;BME280;20231;42.710;23.280;2023-03-01T07:01:57;95440.75;;;9.91;66.01
33953;BME280;20231;42.710;23.280;2023-03-01T07:04:22;95446.59;;;9.98;65.83
33953;BME280;20231;42.710;23.280;2023-03-01T07:06:48;95419.63;;;9.81;65.82
33953;BME280;20231;42.710;23.280;2023-03-01T07:09:23;95445.75;;;9.93;65.93
33953;BME280;20231;42.710;23.280;2023-03-01T07:11:49;95445.22;;;9.91;65.98
33953;BME280;20231;42.710;23.280;2023-03-01T07:14:15;95415.19;;;9.82;65.63
33953;BME280;20231;42.710;23.280;2023-03-01T07:16:40;95434.75;;;10.00;65.37
33953;BME280;20231;42.710;23.280;2023-03-01T07:19:05;95436.59;;;10.10;65.05
33953;BME280;20231;42.710;23.280;2023-03-01T07:21:31;95437.31;;;9.95;65.35
33953;BME280;20231;42.710;23.280;2023-03-01T07:23:57;95438.16;;;10.01;65.59
33953;BME280;20231;42.710;23.280;2023-03-01T07:26:22;95428.91;;;9.93;66.03
33953;BME280;20231;42.710;23.280;2023-03-01T07:28:47;95419.16;;;9.99;65.64
33953;BME280;20231;42.710;23.280;2023-03-01T07:31:13;95424.69;;;10.02;65.52
33953;BME280;20231;42.710;23.280;2023-03-01T07:33:39;95418.84;;;9.91;65.88
33953;BME280;20231;42.710;23.280;2023-03-01T07:36:05;95423.66;;;9.98;65.80
33953;BME280;20231;42.710;23.280;2023-03-01T07:38:32;95416.53;;;9.99;65.94
33953;BME280;20231;42.710;23.280;2023-03-01T07:40:59;95425.50;;;10.08;65.43
33953;BME280;20231;42.710;23.280;2023-03-01T07:43:25;95424.19;;;10.10;65.47
33953;BME280;20231;42.710;23.280;2023-03-01T07:45:50;95415.75;;;10.13;65.23
33953;BME280;20231;42.710;23.280;2023-03-01T07:48:16;95411.00;;;10.15;65.15
33953;BME280;20231;42.710;23.280;2023-03-01T07:50:42;95416.81;;;10.22;64.97
33953;BME280;20231;42.710;23.280;2023-03-01T07:53:08;95414.94;;;10.18;64.79
33953;BME280;20231;42.710;23.280;2023-03-01T07:55:33;95387.78;;;10.02;64.94
33953;BME280;20231;42.710;23.280;2023-03-01T07:57:59;95409.69;;;10.13;64.89
33953;BME280;20231;42.710;23.280;2023-03-01T08:00:24;95400.44;;;10.15;64.90
33953;BME280;20231;42.710;23.280;2023-03-01T08:02:50;95391.75;;;10.20;64.35
33953;BME280;20231;42.710;23.280;2023-03-01T08:05:15;95383.84;;;10.15;64.04
33953;BME280;20231;42.710;23.280;2023-03-01T08:07:41;95395.16;;;10.20;64.11
33953;BME280;20231;42.710;23.280;2023-03-01T08:10:07;95407.59;;;10.35;63.85
33953;BME280;20231;42.710;23.280;2023-03-01T08:12:32;95366.44;;;10.19;63.75
33953;BME280;20231;42.710;23.280;2023-03-01T08:14:58;95384.91;;;10.19;63.57
33953;BME280;20231;42.710;23.280;2023-03-01T08:17:23;95400.72;;;10.34;64.08
33953;BME280;20231;42.710;23.280;2023-03-01T08:19:49;95350.38;;;10.00;63.66
33953;BME280;20231;42.710;23.280;2023-03-01T08:22:14;95398.34;;;10.42;63.10
33953;BME280;20231;42.710;23.280;2023-03-01T08:24:40;95393.06;;;10.27;63.30
33953;BME280;20231;42.710;23.280;2023-03-01T08:27:05;95389.88;;;10.45;62.98
33953;BME280;20231;42.710;23.280;2023-03-01T08:29:34;95399.91;;;10.33;63.51
33953;BME280;20231;42.710;23.280;2023-03-01T08:31:59;95374.09;;;10.30;63.22
33953;BME280;20231;42.710;23.280;2023-03-01T08:34:25;95389.59;;;10.42;63.18
33953;BME280;20231;42.710;23.280;2023-03-01T08:36:51;95400.97;;;10.47;63.11
33953;BME280;20231;42.710;23.280;2023-03-01T08:39:18;95369.09;;;10.29;62.73
33953;BME280;20231;42.710;23.280;2023-03-01T08:41:44;95402.53;;;10.53;63.01
33953;BME280;20231;42.710;23.280;2023-03-01T08:44:11;95389.63;;;10.47;62.89
33953;BME280;20231;42.710;23.280;2023-03-01T08:53:53;95279.72;;;9.88;62.36
33953;BME280;20231;42.710;23.280;2023-03-01T08:56:20;95407.00;;;10.58;62.57
33953;BME280;20231;42.710;23.280;2023-03-01T08:58:47;95368.78;;;10.40;63.51
33953;BME280;20231;42.710;23.280;2023-03-01T09:01:15;95404.63;;;10.66;62.88
33953;BME280;20231;42.710;23.280;2023-03-01T09:03:42;95382.72;;;10.56;63.01
33953;BME280;20231;42.710;23.280;2023-03-01T09:06:07;95401.38;;;10.94;74.62
33953;BME280;20231;42.710;23.280;2023-03-01T09:08:40;95395.34;;;10.83;63.90
33953;BME280;20231;42.710;23.280;2023-03-01T09:11:08;95400.34;;;10.85;62.40
33953;BME280;20231;42.710;23.280;2023-03-01T09:13:34;95390.34;;;10.77;61.90
33953;BME280;20231;42.710;23.280;2023-03-01T09:16:01;95387.44;;;10.83;60.69
33953;BME280;20231;42.710;23.280;2023-03-01T09:18:27;95375.56;;;10.71;60.97
33953;BME280;20231;42.710;23.280;2023-03-01T09:20:53;95381.91;;;10.65;60.36
33953;BME280;20231;42.710;23.280;2023-03-01T09:23:20;95370.66;;;10.40;60.62
33953;BME280;20231;42.710;23.280;2023-03-01T09:25:46;95393.59;;;10.44;60.91
33953;BME280;20231;42.710;23.280;2023-03-01T09:28:11;95379.34;;;10.50;61.45
33953;BME280;20231;42.710;23.280;2023-03-01T09:30:37;95374.31;;;10.49;61.14
33953;BME280;20231;42.710;23.280;2023-03-01T09:33:02;95380.91;;;10.46;61.12
33953;BME280;20231;42.710;23.280;2023-03-01T09:35:27;95389.88;;;10.50;61.54
33953;BME280;20231;42.710;23.280;2023-03-01T09:37:53;95370.09;;;10.43;61.66
33953;BME280;20231;42.710;23.280;2023-03-01T09:40:21;95387.75;;;10.62;61.61
33953;BME280;20231;42.710;23.280;2023-03-01T09:43:05;95369.31;;;10.47;61.35
33953;BME280;20231;42.710;23.280;2023-03-01T09:45:39;95368.78;;;10.50;61.59
33953;BME280;20231;42.710;23.280;2023-03-01T09:48:15;95365.06;;;10.51;61.42
33953;BME280;20231;42.710;23.280;2023-03-01T09:50:43;95357.41;;;10.50;61.40
33953;BME280;20231;42.710;23.280;2023-03-01T09:53:17;95367.69;;;10.61;61.43
33953;BME280;20231;42.710;23.280;2023-03-01T09:56:00;95384.06;;;11.31;75.41
33953;BME280;20231;42.710;23.280;2023-03-01T10:04:09;95361.22;;;11.02;61.91
33953;BME280;20231;42.710;23.280;2023-03-01T10:06:36;95337.28;;;10.83;61.59
33953;BME280;20231;42.710;23.280;2023-03-01T10:09:13;95360.22;;;10.93;60.95
33953;BME280;20231;42.710;23.280;2023-03-01T10:11:51;95361.50;;;10.95;60.70
33953;BME280;20231;42.710;23.280;2023-03-01T10:14:38;95345.97;;;10.84;60.41
33953;BME280;20231;42.710;23.280;2023-03-01T10:20:31;95348.59;;;10.89;59.90
33953;BME280;20231;42.710;23.280;2023-03-01T10:23:01;95346.78;;;10.84;60.14
33953;BME280;20231;42.710;23.280;2023-03-01T10:30:41;95318.91;;;10.49;60.77
33953;BME280;20231;42.710;23.280;2023-03-01T10:33:18;95346.03;;;10.64;61.20
33953;BME280;20231;42.710;23.280;2023-03-01T10:35:45;95327.59;;;10.54;61.26
33953;BME280;20231;42.710;23.280;2023-03-01T10:38:13;95331.50;;;10.71;61.21
33953;BME280;20231;42.710;23.280;2023-03-01T10:40:56;95334.09;;;10.86;60.90
33953;BME280;20231;42.710;23.280;2023-03-01T10:43:27;95325.69;;;10.74;60.76
33953;BME280;20231;42.710;23.280;2023-03-01T10:45:57;95319.38;;;10.70;60.56
33953;BME280;20231;42.710;23.280;2023-03-01T10:48:23;95335.13;;;10.85;60.01
33953;BME280;20231;42.710;23.280;2023-03-01T10:53:29;95337.00;;;10.85;60.03
33953;BME280;20231;42.710;23.280;2023-03-01T10:55:59;95321.47;;;10.78;61.08
33953;BME280;20231;42.710;23.280;2023-03-01T10:58:25;95314.34;;;10.74;59.89
33953;BME280;20231;42.710;23.280;2023-03-01T11:00:52;95332.25;;;10.87;60.30
33953;BME280;20231;42.710;23.280;2023-03-01T11:03:24;95318.00;;;10.83;59.46
33953;BME280;20231;42.710;23.280;2023-03-01T11:05:56;95340.69;;;10.84;59.88
33953;BME280;20231;42.710;23.280;2023-03-01T11:14:07;95342.25;;;10.90;58.86
33953;BME280;20231;42.710;23.280;2023-03-01T11:16:40;95309.88;;;10.69;59.11
33953;BME280;20231;42.710;23.280;2023-03-01T11:24:13;95310.34;;;10.81;59.44
33953;BME280;20231;42.710;23.280;2023-03-01T11:29:27;95269.03;;;10.52;59.56
33953;BME280;20231;42.710;23.280;2023-03-01T11:32:11;95319.84;;;10.82;60.02
33953;BME280;20231;42.710;23.280;2023-03-01T11:40:34;95310.91;;;10.73;60.94
33953;BME280;20231;42.710;23.280;2023-03-01T11:43:23;95309.53;;;10.91;60.59
33953;BME280;20231;42.710;23.280;2023-03-01T11:56:51;95284.44;;;10.93;60.16
33953;BME280;20231;42.710;23.280;2023-03-01T12:02:39;95286.06;;;10.84;60.78
33953;BME280;20231;42.710;23.280;2023-03-01T12:05:17;95289.97;;;10.92;61.28
33953;BME280;20231;42.710;23.280;2023-03-01T12:21:35;95265.00;;;11.61;81.88
33953;BME280;20231;42.710;23.280;2023-03-01T12:32:41;95238.47;;;11.38;59.71
33953;BME280;20231;42.710;23.280;2023-03-01T12:40:51;95264.03;;;11.47;59.94
33953;BME280;20231;42.710;23.280;2023-03-01T12:46:21;95258.69;;;11.19;60.67
33953;BME280;20231;42.710;23.280;2023-03-01T12:51:22;95248.56;;;11.31;60.28
33953;BME280;20231;42.710;23.280;2023-03-01T12:53:50;95252.78;;;11.32;60.25
33953;BME280;20231;42.710;23.280;2023-03-01T12:56:22;95265.69;;;11.38;60.03
33953;BME280;20231;42.710;23.280;2023-03-01T12:59:11;95264.84;;;11.42;60.16
33953;BME280;20231;42.710;23.280;2023-03-01T13:01:59;95262.94;;;11.48;59.46
33953;BME280;20231;42.710;23.280;2023-03-01T13:04:35;95239.53;;;11.37;59.48
33953;BME280;20231;42.710;23.280;2023-03-01T13:09:51;95257.19;;;11.41;59.56
33953;BME280;20231;42.710;23.280;2023-03-01T13:12:52;95264.56;;;11.44;59.64
33953;BME280;20231;42.710;23.280;2023-03-01T13:20:30;95257.06;;;11.61;59.57
33953;BME280;20231;42.710;23.280;2023-03-01T13:23:07;95256.34;;;11.55;59.33
33953;BME280;20231;42.710;23.280;2023-03-01T13:25:34;95257.03;;;11.66;59.05
33953;BME280;20231;42.710;23.280;2023-03-01T13:31:07;95263.47;;;11.50;59.60
33953;BME280;20231;42.710;23.280;2023-03-01T13:36:11;95274.03;;;11.50;60.03
33953;BME280;20231;42.710;23.280;2023-03-01T13:39:03;95272.19;;;11.55;59.86
33953;BME280;20231;42.710;23.280;2023-03-01T13:52:27;95262.94;;;11.48;60.59
33953;BME280;20231;42.710;23.280;2023-03-01T13:54:53;95240.03;;;11.38;60.29
33953;BME280;20231;42.710;23.280;2023-03-01T13:57:26;95252.66;;;11.46;60.28
33953;BME280;20231;42.710;23.280;2023-03-01T13:59:55;95261.72;;;11.36;60.74
33953;BME280;20231;42.710;23.280;2023-03-01T14:02:20;95240.94;;;11.24;60.97
33953;BME280;20231;42.710;23.280;2023-03-01T14:05:09;95248.56;;;11.26;60.95
33953;BME280;20231;42.710;23.280;2023-03-01T14:07:41;95229.41;;;11.10;61.36
33953;BME280;20231;42.710;23.280;2023-03-01T14:10:07;95229.69;;;11.09;61.15
33953;BME280;20231;42.710;23.280;2023-03-01T14:15:22;95238.72;;;11.36;61.17
33953;BME280;20231;42.710;23.280;2023-03-01T14:18:00;95243.44;;;11.44;60.77
33953;BME280;20231;42.710;23.280;2023-03-01T14:20:29;95246.41;;;11.38;61.01
33953;BME280;20231;42.710;23.280;2023-03-01T14:22:58;95219.88;;;11.14;61.41
33953;BME280;20231;42.710;23.280;2023-03-01T14:28:26;95238.97;;;11.39;61.37
33953;BME280;20231;42.710;23.280;2023-03-01T14:30:57;95242.75;;;11.29;61.45
33953;BME280;20231;42.710;23.280;2023-03-01T14:33:33;95240.06;;;11.34;61.39
33953;BME280;20231;42.710;23.280;2023-03-01T14:38:39;95243.97;;;11.41;61.35
33953;BME280;20231;42.710;23.280;2023-03-01T14:41:14;95234.16;;;11.46;61.11
33953;BME280;20231;42.710;23.280;2023-03-01T14:43:43;95195.94;;;11.06;61.12
33953;BME280;20231;42.710;23.280;2023-03-01T14:46:37;95237.38;;;11.43;61.00
33953;BME280;20231;42.710;23.280;2023-03-01T14:51:43;95165.59;;;10.98;61.26
33953;BME280;20231;42.710;23.280;2023-03-01T14:56:46;95214.38;;;11.11;61.40
33953;BME280;20231;42.710;23.280;2023-03-01T14:59:12;95213.28;;;11.17;61.88
33953;BME280;20231;42.710;23.280;2023-03-01T15:04:52;95171.22;;;10.87;61.91
33953;BME280;20231;42.710;23.280;2023-03-01T15:07:43;95118.91;;;10.56;61.82
33953;BME280;20231;42.710;23.280;2023-03-01T15:10:23;95106.53;;;10.51;61.81
33953;BME280;20231;42.710;23.280;2023-03-01T15:12:49;95171.97;;;10.92;62.51
33953;BME280;20231;42.710;23.280;2023-03-01T15:15:34;95223.78;;;11.22;63.36
33953;BME280;20231;42.710;23.280;2023-03-01T15:18:16;95224.84;;;11.21;62.40
33953;BME280;20231;42.710;23.280;2023-03-01T15:20:42;95227.00;;;11.19;62.33
33953;BME280;20231;42.710;23.280;2023-03-01T15:23:41;95234.88;;;11.24;62.03
33953;BME280;20231;42.710;23.280;2023-03-01T15:26:21;95222.81;;;11.13;62.30
33953;BME280;20231;42.710;23.280;2023-03-01T15:28:50;95219.13;;;11.09;62.47